Terminal Aerodrome Forecast
Issued by NWS

Home | Current Version | Previous Version | Text Only | Print | Product List | Glossary On
Versions: 1 2 3 4 5 6 7 8 9 10 11 12 13 14 15 16
000
FTUS41 KGYX 201305 AAA
TAFHIE
TAF AMD
KHIE 201305Z 2013/2112 VRB03KT P6SM BKN025
     FM201500 18008KT P6SM SCT050 BKN200
     FM210400 19005KT P6SM BKN030
     FM210700 20005KT 2SM BR BKN002=

USA.gov is the U.S. government's official web portal to all federal, state and local government web resources and services.